Time;durP1;ratioP1;P1;durP2;ratioP2;P2;SDS_P1;SDS_P2;PMS_P1;PMS_P2;Temp;Humidity;BMP_temperature;BMP_pressure;BME280_temperature;BME280_humidity;BME280_pressure;Samples;Min_cycle;Max_cycle;Signal;HPM_P1;HPM_P2
2023/06/10 15:36:13;;;;;;;6.63;5.30;;;;;;;32.24;28.29;101249.72;4858627;23;20780;-95
2023/06/10 15:38:39;;;;;;;5.50;5.00;;;;;;;32.13;28.91;101251.34;4838202;29;20030;-94
2023/06/10 15:41:04;;;;;;;5.75;5.25;;;;;;;32.00;27.27;101251.19;4838476;29;20068;-95
2023/06/10 15:43:29;;;;;;;5.63;5.10;;;;;;;31.86;27.30;101247.47;4836667;29;20059;-96
2023/06/10 15:45:55;;;;;;;5.70;5.20;;;;;;;31.94;27.97;101240.75;4848121;29;20499;-96
2023/06/10 15:48:20;;;;;;;5.65;5.15;;;;;;;31.82;30.08;101236.97;4840637;29;20522;-96
2023/06/10 15:50:46;;;;;;;5.72;5.22;;;;;;;31.70;29.76;101242.13;4844523;29;20113;-96
2023/06/10 15:53:14;;;;;;;5.95;5.35;;;;;;;31.45;26.29;101240.00;4845977;29;20065;-96
2023/06/10 15:55:43;;;;;;;;;;;;;;;31.54;27.77;101239.44;4845300;29;20034;-96
2023/06/10 15:58:08;;;;;;;;;;;;;;;31.68;27.68;101241.38;4844951;29;20127;-96
2023/06/10 16:00:33;;;;;;;5.93;5.33;;;;;;;31.74;28.19;101229.38;4849538;29;20393;-96
2023/06/10 16:02:59;;;;;;;5.68;5.10;;;;;;;31.86;29.05;101233.16;4848499;29;20042;-96
2023/06/10 16:05:31;;;;;;;5.65;5.15;;;;;;;31.76;26.52;101232.81;4843757;29;20116;-96
2023/06/10 16:08:01;;;;;;;6.13;5.63;;;;;;;31.53;27.17;101239.53;4848705;29;20040;-96
2023/06/10 16:10:26;;;;;;;5.70;5.20;;;;;;;31.43;28.02;101220.38;4840207;29;20030;-96
2023/06/10 16:12:55;;;;;;;6.25;5.60;;;;;;;31.21;30.52;101226.13;4845204;29;20036;-96
2023/06/10 16:15:20;;;;;;;6.25;4.90;;;;;;;31.19;28.46;101228.03;4842673;29;20097;-96
2023/06/10 16:17:46;;;;;;;6.72;5.38;;;;;;;31.09;29.84;101227.69;4844833;29;20400;-96
2023/06/10 16:20:20;;;;;;;6.43;5.60;;;;;;;31.15;29.75;101218.41;4838587;29;20048;-96
2023/06/10 16:23:03;;;;;;;7.03;5.60;;;;;;;30.94;28.16;101225.84;4849357;29;20042;-96
2023/06/10 16:31:02;;;;;;;5.97;5.47;;;;;;;30.54;29.54;101225.38;5173384;23;20069;-63
2023/06/10 16:36:07;;;;;;;6.05;5.28;;;;;;;30.56;30.03;101223.44;4881167;23;20065;-62
2023/06/10 16:43:33;;;;;;;5.70;5.20;;;;;;;30.48;29.05;101216.66;4932288;23;20069;-62
2023/06/10 16:48:24;;;;;;;6.75;5.68;;;;;;;30.74;33.62;101213.50;4950564;23;20366;-63
2023/06/10 16:53:20;;;;;;;5.60;5.10;;;;;;;30.85;31.35;101203.88;5084615;23;20061;-59
2023/06/10 17:13:48;;;;;;;5.90;5.30;;;;;;;30.30;32.54;101218.50;5073064;23;20117;-62
2023/06/10 17:16:13;;;;;;;5.70;5.20;;;;;;;30.40;31.96;101223.38;4975701;23;20061;-61
2023/06/10 17:18:39;;;;;;;6.05;5.50;;;;;;;30.48;31.09;101213.13;5004605;23;20426;-61
2023/06/10 17:21:04;;;;;;;5.13;4.55;;;;;;;30.44;32.00;101225.00;5147756;23;20042;-62
2023/06/10 17:23:30;;;;;;;5.47;4.97;;;;;;;30.46;33.37;101225.75;5159414;23;20053;-62
2023/06/10 17:25:55;;;;;;;5.53;4.97;;;;;;;30.61;33.73;101222.25;5111206;23;20032;-62
2023/06/10 17:28:20;;;;;;;5.80;5.05;;;;;;;30.58;32.01;101230.50;4997522;23;20141;-62
2023/06/10 17:30:46;;;;;;;6.85;5.03;;;;;;;30.73;32.62;101220.69;4909880;23;20058;-62
2023/06/10 17:33:11;;;;;;;6.25;4.90;;;;;;;30.66;33.10;101220.19;4831738;29;20038;-61
2023/06/10 17:35:37;;;;;;;5.75;5.15;;;;;;;30.49;33.14;101223.78;5135248;23;20686;-62
2023/06/10 17:40:37;;;;;;;6.10;5.50;;;;;;;30.44;32.71;101220.47;5042361;23;20024;-62
2023/06/10 17:45:34;;;;;;;6.85;5.40;;;;;;;30.15;31.34;101238.13;5063399;23;20350;-62
2023/06/10 17:48:00;;;;;;;6.22;5.63;;;;;;;29.99;31.30;101230.84;4972925;23;20058;-60
2023/06/10 17:52:55;;;;;;;6.00;4.90;;;;;;;29.72;33.46;101237.63;4904078;23;20058;-60
2023/06/10 17:55:20;;;;;;;6.03;5.07;;;;;;;29.60;32.42;101239.97;4941926;23;20104;-60
2023/06/10 18:00:16;;;;;;;6.13;4.85;;;;;;;29.44;34.18;101241.69;5087148;23;20073;-60
2023/06/10 18:02:41;;;;;;;5.68;5.18;;;;;;;29.34;33.50;101243.09;5055974;23;20398;-60
2023/06/10 18:05:07;;;;;;;7.25;5.13;;;;;;;29.26;34.97;101246.19;4992490;23;20028;-60
2023/06/10 18:07:32;;;;;;;7.07;5.10;;;;;;;29.27;34.38;101240.72;4838321;29;20033;-54
2023/06/10 18:09:57;;;;;;;6.90;5.47;;;;;;;29.20;35.07;101246.41;5007441;23;21452;-60
2023/06/10 18:17:27;;;;;;;6.18;5.60;;;;;;;29.04;35.46;101251.66;5016854;23;20066;-60
2023/06/10 18:20:31;;;;;;;6.03;5.43;;;;;;;29.03;34.66;101247.25;4839839;29;20066;-60
2023/06/10 18:22:57;;;;;;;5.93;5.32;;;;;;;29.06;36.13;101258.69;4842417;29;20029;-60
2023/06/10 18:25:22;;;;;;;5.70;5.20;;;;;;;28.86;36.87;101253.41;4844039;29;20029;-60
2023/06/10 18:27:48;;;;;;;6.47;5.47;;;;;;;28.79;37.29;101258.16;4840699;29;20045;-60
2023/06/10 18:30:13;;;;;;;6.18;5.10;;;;;;;28.79;36.27;101258.16;4840593;29;20037;-60
2023/06/10 18:32:39;;;;;;;6.30;5.70;;;;;;;28.70;36.17;101263.97;4838245;29;20114;-60
2023/06/10 18:35:04;;;;;;;5.75;5.18;;;;;;;28.55;36.54;101261.00;4837806;29;20036;-60
2023/06/10 18:37:30;;;;;;;5.68;5.13;;;;;;;28.48;36.16;101256.88;4839996;29;20034;-60
2023/06/10 18:39:55;;;;;;;5.53;5.03;;;;;;;28.46;36.35;101266.81;4837562;29;20037;-60
2023/06/10 18:42:20;;;;;;;5.70;5.20;;;;;;;28.42;38.12;101270.56;4838333;29;20034;-60
2023/06/10 18:44:46;;;;;;;5.28;4.78;;;;;;;28.45;38.67;101276.63;4840444;29;20374;-60
2023/06/10 18:47:11;;;;;;;5.60;5.10;;;;;;;28.40;37.57;101277.78;4840206;29;20029;-60
2023/06/10 18:49:37;;;;;;;5.80;5.20;;;;;;;28.29;36.65;101275.59;4840102;29;20074;-60
2023/06/10 18:52:03;;;;;;;5.65;5.15;;;;;;;28.09;37.36;101284.47;4840948;29;20025;-60
2023/06/10 18:54:29;;;;;;;5.90;5.30;;;;;;;28.11;38.06;101287.97;4842850;29;20026;-60
2023/06/10 18:56:57;;;;;;;6.03;4.85;;;;;;;27.98;38.91;101284.06;4840153;29;20520;-60
2023/06/10 18:59:22;;;;;;;;;;;;;;;28.05;38.04;101293.59;4841360;29;20512;-60
2023/06/10 19:01:48;;;;;;;6.60;6.00;;;;;;;27.86;37.33;101288.97;4840033;29;19916;-60
2023/06/10 19:04:19;;;;;;;6.20;5.20;;;;;;;27.85;37.60;101292.59;4839299;29;20029;-60
2023/06/10 19:06:45;;;;;;;6.15;5.55;;;;;;;27.82;38.51;101292.69;4839721;29;20098;-60
2023/06/10 19:09:10;;;;;;;6.00;5.10;;;;;;;27.88;38.79;101299.63;4840694;29;20493;-60
2023/06/10 19:11:35;;;;;;;5.60;5.10;;;;;;;27.77;39.15;101300.06;4840835;29;20354;-60
2023/06/10 19:14:01;;;;;;;5.33;4.90;;;;;;;27.81;38.77;101301.69;4837364;29;20057;-60
2023/06/10 19:16:26;;;;;;;5.57;5.07;;;;;;;27.86;37.81;101306.84;4840395;29;20298;-60
2023/06/10 19:18:51;;;;;;;5.80;5.27;;;;;;;27.88;37.83;101305.84;4818896;29;20042;-60
2023/06/10 19:21:17;;;;;;;6.13;5.50;;;;;;;27.87;40.11;101301.44;4820378;29;20299;-60
2023/06/10 19:23:42;;;;;;;6.70;5.05;;;;;;;27.77;38.25;101311.66;4818804;29;20030;-60
2023/06/10 19:26:11;;;;;;;6.23;5.33;;;;;;;27.74;38.72;101310.91;4821308;29;20284;-60
2023/06/10 19:28:39;;;;;;;6.25;5.45;;;;;;;27.65;39.33;101309.50;4818378;29;20299;-61
2023/06/10 19:31:05;;;;;;;6.05;5.35;;;;;;;27.57;38.02;101315.13;4819414;29;20099;-54
2023/06/10 19:33:30;;;;;;;6.68;5.10;;;;;;;27.53;39.73;101312.66;4816413;29;20041;-54
2023/06/10 19:35:58;;;;;;;5.80;5.23;;;;;;;27.43;39.80;101322.84;4820643;29;20127;-54
2023/06/10 19:38:23;;;;;;;5.80;5.22;;;;;;;27.37;39.98;101323.09;4820606;29;20334;-54
2023/06/10 19:40:49;;;;;;;6.18;5.13;;;;;;;27.36;40.94;101321.34;4818284;29;20054;-53
2023/06/10 19:43:14;;;;;;;5.88;5.28;;;;;;;27.25;41.10;101325.28;4821889;29;20512;-53
2023/06/10 19:45:39;;;;;;;6.03;5.20;;;;;;;27.21;41.47;101330.81;4819422;29;20457;-54
2023/06/10 19:48:05;;;;;;;5.70;5.10;;;;;;;27.08;40.89;101327.72;4821692;29;20179;-54
2023/06/10 19:50:31;;;;;;;5.93;5.30;;;;;;;27.04;41.52;101332.34;4821765;29;20065;-54
2023/06/10 19:52:56;;;;;;;5.85;5.18;;;;;;;26.95;40.89;101331.81;4821378;29;20046;-54
2023/06/10 19:55:21;;;;;;;5.37;4.87;;;;;;;26.79;41.28;101328.81;4820737;29;20045;-54
2023/06/10 19:57:47;;;;;;;5.93;5.25;;;;;;;26.80;41.82;101336.78;4819272;29;20390;-54
2023/06/10 20:00:14;;;;;;;5.63;5.00;;;;;;;26.77;41.50;101331.56;4820875;29;20603;-54
2023/06/10 20:02:39;;;;;;;5.30;4.80;;;;;;;26.59;41.85;101346.41;4821176;29;20042;-54
2023/06/10 20:05:05;;;;;;;5.57;4.93;;;;;;;26.51;42.13;101351.16;4821681;29;20026;-53
2023/06/10 20:07:30;;;;;;;7.15;5.22;;;;;;;26.43;42.05;101345.22;4821533;29;20026;-54
2023/06/10 20:10:03;;;;;;;6.00;4.80;;;;;;;26.38;42.64;101342.72;4820668;29;20083;-53
2023/06/10 20:12:29;;;;;;;6.13;4.70;;;;;;;26.31;42.85;101343.84;4820918;29;20038;-54
2023/06/10 20:20:34;;;;;;;5.75;5.10;;;;;;;26.22;43.62;101353.03;5106403;23;20077;-59
2023/06/10 20:23:00;;;;;;;6.43;5.18;;;;;;;26.14;41.05;101350.66;4829999;29;20042;-59
2023/06/10 20:25:25;;;;;;;6.27;5.67;;;;;;;26.12;43.10;101348.94;4832103;29;20029;-60
2023/06/10 20:27:50;;;;;;;6.87;5.53;;;;;;;26.08;43.13;101342.81;4833782;29;20940;-60
2023/06/10 20:30:16;;;;;;;5.57;5.03;;;;;;;26.00;43.60;101351.09;4834592;29;20297;-60
2023/06/10 20:32:41;;;;;;;6.07;5.38;;;;;;;25.97;43.44;101356.50;4833427;29;20030;-59
2023/06/10 20:35:07;;;;;;;6.22;5.63;;;;;;;25.95;43.42;101357.47;4835008;29;20034;-59
2023/06/10 20:37:32;;;;;;;6.90;5.55;;;;;;;25.86;43.15;101361.31;4834031;29;20072;-60
2023/06/10 20:39:57;;;;;;;7.10;5.32;;;;;;;25.86;44.02;101362.16;4833215;29;20485;-60
2023/06/10 20:42:23;;;;;;;7.30;5.18;;;;;;;25.79;41.38;101370.44;4832985;29;20031;-59
2023/06/10 20:44:48;;;;;;;6.22;5.53;;;;;;;25.73;44.14;101362.63;4834726;29;20370;-60
2023/06/10 20:47:13;;;;;;;6.27;5.67;;;;;;;25.57;43.71;101370.25;4835139;29;20505;-59
2023/06/10 20:49:39;;;;;;;5.70;5.05;;;;;;;25.56;44.07;101373.81;4833964;29;20301;-59
2023/06/10 20:52:04;;;;;;;6.88;5.38;;;;;;;25.43;42.95;101378.66;4833096;29;20082;-59
2023/06/10 20:54:29;;;;;;;6.05;5.45;;;;;;;25.38;44.21;101381.47;4835391;29;20030;-60
2023/06/10 20:56:55;;;;;;;6.40;4.97;;;;;;;25.32;44.19;101371.84;4835151;29;20394;-59
2023/06/10 20:59:20;;;;;;;5.75;5.20;;;;;;;25.30;44.71;101383.44;4835166;29;20045;-59
2023/06/10 21:01:45;;;;;;;6.10;5.50;;;;;;;25.18;44.97;101380.22;4834827;29;20042;-59
2023/06/10 21:04:11;;;;;;;7.13;5.63;;;;;;;25.12;44.38;101383.06;4834557;29;20026;-59
2023/06/10 21:06:36;;;;;;;6.38;5.68;;;;;;;25.08;45.27;101386.72;4834505;29;20108;-59
2023/06/10 21:09:01;;;;;;;6.00;5.47;;;;;;;24.99;44.77;101384.34;4834534;29;20041;-59
2023/06/10 21:11:27;;;;;;;7.78;5.75;;;;;;;24.94;46.41;101386.25;4833200;29;20128;-59
2023/06/10 21:13:52;;;;;;;5.93;5.33;;;;;;;24.96;45.27;101384.44;4833229;29;20025;-59
2023/06/10 21:16:17;;;;;;;5.78;5.22;;;;;;;24.87;43.72;101380.22;4833470;29;20313;-60
2023/06/10 21:18:43;;;;;;;6.30;5.70;;;;;;;24.82;46.24;101379.47;4833129;29;20523;-59
2023/06/10 21:21:08;;;;;;;6.13;5.53;;;;;;;24.82;46.67;101385.69;4828032;29;20064;-59
2023/06/10 21:23:33;;;;;;;7.60;5.67;;;;;;;24.76;46.35;101388.50;4823311;29;20022;-59
2023/06/10 21:26:00;;;;;;;6.32;5.55;;;;;;;24.79;46.80;101382.22;4822180;29;21094;-59
2023/06/10 21:28:25;;;;;;;6.35;5.65;;;;;;;24.76;46.58;101393.81;4823227;29;20611;-60
2023/06/10 21:30:51;;;;;;;7.75;5.90;;;;;;;24.70;45.96;101391.34;4824605;29;20022;-59
2023/06/10 21:33:16;;;;;;;6.45;5.35;;;;;;;24.69;47.15;101388.72;4820985;29;20414;-60
2023/06/10 21:35:42;;;;;;;6.35;5.75;;;;;;;24.60;43.95;101392.50;4824235;29;20040;-59
2023/06/10 21:38:07;;;;;;;6.40;5.78;;;;;;;24.54;44.49;101397.97;4821926;29;20314;-53
2023/06/10 21:40:32;;;;;;;6.82;5.80;;;;;;;24.50;46.84;101386.50;4900870;23;20065;-59
2023/06/10 21:43:01;;;;;;;6.32;5.72;;;;;;;24.40;46.77;101393.84;4862111;29;20120;-59
2023/06/10 21:45:26;;;;;;;6.65;5.90;;;;;;;24.41;44.71;101392.94;4863389;29;20536;-59
2023/06/10 21:47:51;;;;;;;8.10;5.95;;;;;;;24.36;47.87;101397.53;4865470;29;20045;-59
2023/06/10 21:50:17;;;;;;;6.55;5.47;;;;;;;24.36;47.86;101400.19;4862869;29;20033;-59
2023/06/10 21:52:42;;;;;;;6.20;5.60;;;;;;;24.34;48.35;101401.13;4865499;29;20129;-59
2023/06/10 21:55:08;;;;;;;6.68;5.78;;;;;;;24.34;48.22;101393.13;4864202;29;20068;-60
2023/06/10 21:57:33;;;;;;;6.45;5.75;;;;;;;24.32;48.23;101393.19;4866985;29;20559;-59
2023/06/10 21:59:58;;;;;;;6.18;5.57;;;;;;;24.28;47.74;101392.38;4867164;29;20065;-59
2023/06/10 22:02:26;;;;;;;8.90;6.50;;;;;;;24.21;48.84;101392.56;4866886;29;20120;-59
2023/06/10 22:04:52;;;;;;;6.80;6.20;;;;;;;24.17;48.58;101394.41;4867835;29;20052;-59
2023/06/10 22:07:17;;;;;;;6.22;5.68;;;;;;;24.13;49.16;101392.75;4867017;29;20508;-59
2023/06/10 22:09:48;;;;;;;6.53;5.55;;;;;;;24.03;48.97;101392.09;4865886;29;20076;-59
2023/06/10 22:12:17;;;;;;;6.82;5.78;;;;;;;23.90;48.73;101390.66;4865278;29;20052;-59
2023/06/10 22:14:43;;;;;;;6.80;6.10;;;;;;;23.89;49.36;101392.41;4864007;29;20097;-59
2023/06/10 22:17:12;;;;;;;6.10;5.50;;;;;;;23.87;49.39;101388.03;4865668;29;20030;-59
2023/06/10 22:19:38;;;;;;;6.10;5.50;;;;;;;23.85;49.61;101384.50;4864387;29;20981;-59
2023/06/10 22:22:06;;;;;;;6.85;6.15;;;;;;;23.78;49.83;101386.41;4863964;29;20034;-59
2023/06/10 22:24:31;;;;;;;6.55;5.95;;;;;;;23.68;49.36;101385.78;4865047;29;20038;-59
2023/06/10 22:26:57;;;;;;;6.45;5.85;;;;;;;23.58;49.87;101384.25;4865779;29;20065;-59
2023/06/10 22:29:22;;;;;;;6.40;5.75;;;;;;;23.53;50.69;101383.44;4866724;29;20033;-59
2023/06/10 22:31:47;;;;;;;5.93;5.37;;;;;;;23.48;47.14;101382.66;4866011;29;20037;-59
2023/06/10 22:34:16;;;;;;;6.70;6.00;;;;;;;23.42;50.67;101391.69;4865791;29;20282;-59
2023/06/10 22:36:41;;;;;;;6.53;5.93;;;;;;;23.42;51.30;101394.34;4867061;29;20396;-59
2023/06/10 22:39:11;;;;;;;6.70;6.07;;;;;;;23.35;50.88;101388.25;4865685;29;20591;-59
2023/06/10 22:41:43;;;;;;;6.78;6.18;;;;;;;23.28;51.34;101397.28;4850384;29;20544;-58
2023/06/10 22:44:11;;;;;;;7.07;6.35;;;;;;;23.29;51.41;101390.16;4848005;29;20041;-59
2023/06/10 22:46:39;;;;;;;7.70;7.00;;;;;;;23.25;51.75;101390.22;4847297;29;20501;-58
2023/06/10 22:49:05;;;;;;;8.27;7.00;;;;;;;23.22;51.57;101392.94;4847079;29;20025;-59
2023/06/10 22:51:33;;;;;;;7.30;6.60;;;;;;;23.25;51.77;101392.03;4847152;29;20042;-59
2023/06/10 22:53:58;;;;;;;7.53;6.70;;;;;;;23.17;51.58;101384.19;4845839;29;20076;-59
2023/06/10 22:56:25;;;;;;;7.30;6.60;;;;;;;23.15;52.18;101390.47;4847364;29;20385;-59
2023/06/10 22:58:50;;;;;;;7.55;6.85;;;;;;;23.12;51.92;101385.22;4847006;29;20527;-59
2023/06/10 23:01:16;;;;;;;7.20;6.50;;;;;;;23.00;51.89;101387.16;4847149;29;20046;-59
2023/06/10 23:03:41;;;;;;;7.07;6.38;;;;;;;22.98;52.07;101388.09;4847237;29;20033;-59
2023/06/10 23:06:07;;;;;;;7.35;6.68;;;;;;;22.88;52.84;101390.03;4847639;29;20481;-59
2023/06/10 23:08:32;;;;;;;7.30;6.60;;;;;;;22.87;52.87;101396.25;4847297;29;20030;-59
2023/06/10 23:10:57;;;;;;;7.20;6.40;;;;;;;22.83;53.32;101391.94;4848021;29;20045;-59
2023/06/10 23:13:23;;;;;;;8.07;7.22;;;;;;;22.71;53.36;101393.00;4847542;29;20033;-59
2023/06/10 23:15:48;;;;;;;7.70;7.00;;;;;;;22.67;53.77;101394.00;4847247;29;20905;-59
2023/06/10 23:18:13;;;;;;;7.75;6.95;;;;;;;22.59;53.75;101394.09;4846729;29;20299;-59
2023/06/10 23:20:40;;;;;;;7.93;7.18;;;;;;;22.57;53.83;101388.81;4847450;29;20037;-59
2023/06/10 23:23:06;;;;;;;8.07;7.28;;;;;;;22.50;53.00;101394.28;4846461;29;20037;-59
2023/06/10 23:25:32;;;;;;;8.10;7.10;;;;;;;22.48;54.55;101393.41;4846870;29;20044;-59
2023/06/10 23:27:57;;;;;;;8.32;7.53;;;;;;;22.40;54.50;101391.78;4847357;29;20412;-59
2023/06/10 23:30:23;;;;;;;7.85;7.15;;;;;;;22.35;55.04;101388.31;4847020;29;20181;-59
2023/06/10 23:32:48;;;;;;;7.80;7.10;;;;;;;22.32;51.47;101387.44;4846979;29;20060;-59
2023/06/10 23:35:18;;;;;;;7.60;6.90;;;;;;;22.29;55.03;101387.50;4846715;29;20451;-59
2023/06/10 23:37:45;;;;;;;8.45;7.65;;;;;;;22.25;55.73;101386.69;4847639;29;20045;-59
2023/06/10 23:40:11;;;;;;;7.80;7.15;;;;;;;22.26;55.31;101396.44;4846399;29;20045;-58
2023/06/10 23:42:36;;;;;;;7.93;7.07;;;;;;;22.22;55.77;101386.75;4846150;29;20033;-59
2023/06/10 23:45:05;;;;;;;8.93;8.02;;;;;;;22.18;55.59;101395.66;4845265;29;20406;-59
2023/06/10 23:47:31;;;;;;;8.80;8.10;;;;;;;22.12;56.13;101393.97;4846073;29;20044;-59
2023/06/10 23:49:59;;;;;;;9.00;8.10;;;;;;;22.08;56.24;101386.09;4846095;29;20456;-59
2023/06/10 23:52:25;;;;;;;8.95;8.20;;;;;;;22.01;56.11;101390.59;4846489;29;20029;-58
2023/06/10 23:54:50;;;;;;;10.15;9.25;;;;;;;21.98;56.53;101388.88;4846059;29;20085;-59
2023/06/10 23:57:18;;;;;;;9.70;8.90;;;;;;;21.98;55.99;101394.19;4846392;29;20124;-59
2023/06/10 23:59:46;;;;;;;9.60;8.80;;;;;;;21.95;56.53;101388.91;4844800;29;20018;-58
